Avoca, Wisconsin
Current Conditions -  °F | °C
As of 4:56 AM on Monday 20 Oct 2014 (Local Time) from KLNR Reporting Station
Few Clouds Few Clouds  
Wind Chill: 51°   Ceiling: Unl
Heat Index: 51°   Visibility: 10mi
Dew Point: 43°   Wind: 10mph
Humidity: 74%   Direction: 290°WNW
Pressure: 29.82"   Gusts: NA
Location:  43.18°N, 90.32°W
Report Text: KLNR 200956Z AUTO 29009KT 10SM FEW065 11/06 A2982 RMK AO2 SLP094 T01060061
Loading
Personal Weather Stations






























Interactive Weather Map New forecast layout! Learn more

10-Day Weather Forecast

Advertisements
Track Severe Weather on mobile